Garden City, South Carolina
Current Conditions -  °F | °C
As of 12:50 PM on Sunday 25 Jan 2015 (Local Time) from KMYR Reporting Station
Clear Clear  
Wind Chill: 54°   Ceiling: Unl
Heat Index: 54°   Visibility: 10mi
Dew Point: 28°   Wind: 8mph
Humidity: 38%   Direction: 130°SE
Pressure: 29.98"   Gusts: NA
Location:  33.5501°N, 79.0592°W
Report Text: KMYR 251750Z 13007KT 10SM CLR 12/M02 A2998
Loading
Personal Weather Stations






























Interactive Weather Map New forecast layout! Learn more

10-Day Weather Forecast

Advertisements
Track Severe Weather on mobile